Terminal Aerodrome Forecast
Issued by NWS Sioux Falls, SD

Home | Current Version | Previous Version | Graphics & Text | Print | Product List | Glossary Off
Versions: 1 2 3 4 5 6 7 8 9 10 11 12 13 14 15 16 17 18

000
FTUS43 KFSD 181722
TAFFSD
TAF
KFSD 181722Z 1818/1918 20005KT P6SM FEW250
     FM182000 28008KT P6SM FEW070
     FM182300 31010KT P6SM FEW080
     FM190200 35007KT P6SM FEW250
     FM190600 VRB03KT P6SM SKC
     FM191000 00000KT 3SM BR FEW150
     FM191400 00000KT P6SM FEW130=

USA.gov is the U.S. government's official web portal to all federal, state and local government web resources and services.